createdAt,value
2019-03-21T00:00:15.592Z,1.20
2019-03-21T00:02:48.128Z,1.10
2019-03-21T00:05:19.147Z,1.10
2019-03-21T00:07:49.926Z,1.00
2019-03-21T00:10:33.146Z,1.00
2019-03-21T00:13:03.446Z,1.00
2019-03-21T00:15:49.207Z,1.00
2019-03-21T00:18:19.107Z,1.00
2019-03-21T00:20:48.766Z,1.00
2019-03-21T00:23:18.186Z,0.90
2019-03-21T00:25:48.286Z,0.90
2019-03-21T00:28:17.569Z,0.80
2019-03-21T00:30:47.406Z,0.80
2019-03-21T00:33:17.209Z,0.70
2019-03-21T00:35:47.026Z,0.70
2019-03-21T00:38:17.006Z,0.70
2019-03-21T00:40:47.987Z,0.70
2019-03-21T00:43:17.866Z,0.70
2019-03-21T00:45:47.227Z,0.60
2019-03-21T00:48:19.866Z,0.60
2019-03-21T00:50:49.725Z,0.50
2019-03-21T00:53:18.987Z,0.50
2019-03-21T00:55:51.272Z,0.50
2019-03-21T00:58:21.490Z,0.60
2019-03-21T01:00:59.548Z,0.60
2019-03-21T01:03:29.579Z,0.50
2019-03-21T01:05:59.000Z,0.50
2019-03-21T01:08:28.580Z,0.50
2019-03-21T01:10:58.559Z,0.50
2019-03-21T01:13:30.805Z,0.50
2019-03-21T01:16:00.824Z,0.50
2019-03-21T01:18:30.379Z,0.50
2019-03-21T01:21:00.743Z,0.40
2019-03-21T01:23:31.049Z,0.40
2019-03-21T01:26:09.479Z,0.30
2019-03-21T01:28:39.060Z,0.40
2019-03-21T01:31:08.798Z,0.30
2019-03-21T01:33:38.101Z,0.30
2019-03-21T01:36:08.681Z,0.20
2019-03-21T01:38:37.960Z,0.20
2019-03-21T01:41:09.899Z,0.20
2019-03-21T01:43:39.639Z,0.20
2019-03-21T01:46:23.962Z,0.20
2019-03-21T01:48:53.380Z,0.20
2019-03-21T01:51:23.039Z,0.20
2019-03-21T01:53:53.748Z,0.10
2019-03-21T01:56:22.999Z,0.10
2019-03-21T01:58:52.379Z,0.10
2019-03-21T02:01:23.319Z,0.10
2019-03-21T02:03:52.599Z,0.00
2019-03-21T02:06:22.299Z,0.00
2019-03-21T02:08:51.579Z,-0.10
2019-03-21T02:11:21.179Z,-0.10
2019-03-21T02:13:50.641Z,-0.20
2019-03-21T02:16:19.802Z,-0.20
2019-03-21T02:18:49.239Z,-0.10
2019-03-21T02:21:18.672Z,-0.20
2019-03-21T02:23:48.279Z,-0.20
2019-03-21T02:26:19.059Z,-0.20
2019-03-21T02:28:48.779Z,-0.20
2019-03-21T02:31:18.502Z,-0.20
2019-03-21T02:33:48.441Z,-0.20
2019-03-21T02:36:20.780Z,-0.30
2019-03-21T02:38:50.199Z,-0.30
2019-03-21T02:41:19.761Z,-0.30
2019-03-21T02:43:49.080Z,-0.40
2019-03-21T02:46:18.726Z,-0.40
2019-03-21T02:48:47.943Z,-0.50
2019-03-21T02:51:17.505Z,-0.50
2019-03-21T02:53:47.177Z,-0.50
2019-03-21T02:56:24.880Z,-0.50
2019-03-21T02:58:54.849Z,-0.60
2019-03-21T03:01:24.207Z,-0.50
2019-03-21T03:04:02.587Z,-0.50
2019-03-21T03:06:31.928Z,-0.50
2019-03-21T03:09:01.749Z,-0.50
2019-03-21T03:11:31.828Z,-0.50
2019-03-21T03:14:04.353Z,-0.50
2019-03-21T03:16:33.986Z,-0.50
2019-03-21T03:19:03.969Z,-0.50
2019-03-21T03:21:33.829Z,-0.40
2019-03-21T03:24:03.108Z,-0.40
2019-03-21T03:26:33.550Z,-0.40
2019-03-21T03:29:02.872Z,-0.40
2019-03-21T03:31:32.047Z,-0.30
2019-03-21T03:34:01.602Z,-0.30
2019-03-21T03:36:31.485Z,-0.30
2019-03-21T03:39:01.027Z,-0.40
2019-03-21T03:41:30.847Z,-0.40
2019-03-21T03:44:00.050Z,-0.50
2019-03-21T03:46:29.786Z,-0.60
2019-03-21T03:48:59.435Z,-0.70
2019-03-21T03:51:28.940Z,-0.80
2019-03-21T03:53:58.280Z,-0.80
2019-03-21T03:56:27.800Z,-0.80
2019-03-21T03:59:02.947Z,-0.80
2019-03-21T04:01:32.120Z,-0.80
2019-03-21T04:04:01.299Z,-0.90
2019-03-21T04:06:30.680Z,-0.90
2019-03-21T04:08:59.781Z,-1.00
2019-03-21T04:11:29.640Z,-1.00
2019-03-21T04:13:58.760Z,-1.00
2019-03-21T04:16:28.459Z,-1.00
2019-03-21T04:18:57.925Z,-1.00
2019-03-21T04:21:27.559Z,-1.00
2019-03-21T04:23:59.827Z,-0.90
2019-03-21T04:26:45.120Z,-0.90
2019-03-21T04:29:15.199Z,-0.90
2019-03-21T04:31:52.499Z,-0.90
2019-03-21T04:34:22.441Z,-0.90
2019-03-21T04:36:52.101Z,-0.90
2019-03-21T04:39:21.881Z,-1.00
2019-03-21T04:41:51.601Z,-1.00
2019-03-21T04:44:21.358Z,-1.10
2019-03-21T04:46:50.799Z,-1.10
2019-03-21T04:49:20.639Z,-1.20
2019-03-21T04:51:49.963Z,-1.20
2019-03-21T04:54:19.480Z,-1.20
2019-03-21T04:56:49.459Z,-1.20
2019-03-21T04:59:19.460Z,-1.10
2019-03-21T05:01:49.048Z,-1.10
2019-03-21T05:04:18.260Z,-1.20
2019-03-21T05:06:47.339Z,-1.20
2019-03-21T05:09:18.239Z,-1.20
2019-03-21T05:11:48.339Z,-1.10
2019-03-21T05:14:19.669Z,-1.10
2019-03-21T05:16:49.375Z,-1.10
2019-03-21T05:19:18.948Z,-1.10
2019-03-21T05:21:48.370Z,-1.10
2019-03-21T05:24:18.089Z,-0.80
2019-03-21T05:26:47.449Z,-0.40
2019-03-21T05:29:16.949Z,0.00
2019-03-21T05:31:46.248Z,0.40
2019-03-21T05:34:16.044Z,0.70
2019-03-21T05:36:45.425Z,1.10
2019-03-21T05:39:15.425Z,1.50
2019-03-21T05:41:44.343Z,1.80
2019-03-21T05:44:31.379Z,2.10
2019-03-21T05:47:00.368Z,2.50
2019-03-21T05:49:34.235Z,2.90
2019-03-21T05:52:03.703Z,3.30
2019-03-21T05:54:32.893Z,3.50
2019-03-21T05:57:01.944Z,3.80
2019-03-21T05:59:31.564Z,4.10
2019-03-21T06:02:00.987Z,4.50
2019-03-21T06:04:33.260Z,5.00
2019-03-21T06:07:08.680Z,5.60
2019-03-21T06:09:38.880Z,6.20
2019-03-21T06:12:09.366Z,7.10
2019-03-21T06:14:51.779Z,7.90
2019-03-21T06:17:21.539Z,8.20
2019-03-21T06:19:56.379Z,8.70
2019-03-21T06:22:35.679Z,9.30
2019-03-21T06:25:08.266Z,9.80
2019-03-21T06:27:37.646Z,10.70
2019-03-21T06:30:09.419Z,11.40
2019-03-21T06:32:38.679Z,11.90
2019-03-21T06:35:10.779Z,12.50
2019-03-21T06:37:39.847Z,13.10
2019-03-21T06:40:09.239Z,13.40
2019-03-21T06:42:39.112Z,13.90
2019-03-21T06:45:09.099Z,14.40
2019-03-21T06:47:38.539Z,15.00
2019-03-21T06:50:09.180Z,15.50
2019-03-21T06:52:39.319Z,15.80
2019-03-21T06:55:09.144Z,16.10
2019-03-21T06:57:38.398Z,16.50
2019-03-21T07:00:09.596Z,16.80
2019-03-21T07:02:39.101Z,17.10
2019-03-21T07:05:08.741Z,17.50
2019-03-21T07:07:38.031Z,17.70
2019-03-21T07:10:09.687Z,18.20
2019-03-21T07:12:40.208Z,18.80
2019-03-21T07:15:11.393Z,18.90
2019-03-21T07:17:41.084Z,19.00
2019-03-21T07:20:13.268Z,18.70
2019-03-21T07:22:43.058Z,18.70
2019-03-21T07:25:12.706Z,18.80
2019-03-21T07:27:42.306Z,19.40
2019-03-21T07:30:14.306Z,19.80
2019-03-21T07:32:43.579Z,20.10
2019-03-21T07:35:13.879Z,20.60
2019-03-21T07:37:43.362Z,21.20
2019-03-21T07:40:14.482Z,21.80
2019-03-21T07:42:44.368Z,21.80
2019-03-21T07:45:14.266Z,22.20
2019-03-21T07:47:44.329Z,22.40
2019-03-21T07:50:15.569Z,22.40
2019-03-21T07:52:45.108Z,22.40
2019-03-21T07:55:14.990Z,22.60
2019-03-21T07:57:44.829Z,23.00
2019-03-21T08:00:18.421Z,23.20
2019-03-21T08:02:47.946Z,23.40
2019-03-21T08:05:17.767Z,23.20
2019-03-21T08:07:47.523Z,22.60
2019-03-21T08:10:17.900Z,22.20
2019-03-21T08:12:47.435Z,19.40
2019-03-21T08:15:18.185Z,16.20
2019-03-21T08:17:48.274Z,13.90
2019-03-21T08:20:18.911Z,12.40
2019-03-21T08:22:48.931Z,11.50
2019-03-21T08:25:18.641Z,10.90
2019-03-21T08:27:48.361Z,10.40
2019-03-21T08:30:33.638Z,10.10
2019-03-21T08:33:03.659Z,9.70
2019-03-21T08:35:33.639Z,9.40
2019-03-21T08:38:06.900Z,9.30
2019-03-21T08:40:36.519Z,9.30
2019-03-21T08:43:06.180Z,9.40
2019-03-21T08:45:36.019Z,9.20
2019-03-21T08:48:05.388Z,9.10
2019-03-21T08:50:37.239Z,9.10
2019-03-21T08:53:06.530Z,9.20
2019-03-21T08:55:36.863Z,9.30
2019-03-21T08:58:06.239Z,9.30
2019-03-21T09:00:35.962Z,9.30
2019-03-21T09:03:05.564Z,9.20
2019-03-21T09:05:35.323Z,9.20
2019-03-21T09:08:05.102Z,9.20
2019-03-21T09:10:34.883Z,9.40
2019-03-21T09:13:04.242Z,9.20
2019-03-21T09:15:34.062Z,9.20
2019-03-21T09:18:03.567Z,9.10
2019-03-21T09:20:33.388Z,9.10
2019-03-21T09:23:03.462Z,9.10
2019-03-21T09:25:34.420Z,9.20
2019-03-21T09:28:04.939Z,9.40
2019-03-21T09:30:34.759Z,9.50
2019-03-21T09:33:05.640Z,9.60
2019-03-21T09:35:35.027Z,9.70
2019-03-21T09:38:04.980Z,9.80
2019-03-21T09:40:40.282Z,9.80
2019-03-21T09:43:10.699Z,9.90
2019-03-21T09:45:39.819Z,10.10
2019-03-21T09:48:09.162Z,10.20
2019-03-21T09:50:39.180Z,10.30
2019-03-21T09:53:08.440Z,10.40
2019-03-21T09:55:37.999Z,10.30
2019-03-21T09:58:07.599Z,10.30
2019-03-21T10:00:38.502Z,10.20
2019-03-21T10:03:07.579Z,10.10
2019-03-21T10:05:40.329Z,9.90
2019-03-21T10:08:09.440Z,10.10
2019-03-21T10:10:38.420Z,10.20
2019-03-21T10:13:07.822Z,10.50
2019-03-21T10:15:37.403Z,10.70
2019-03-21T10:18:06.939Z,10.80
2019-03-21T10:20:36.499Z,10.80
2019-03-21T10:23:06.219Z,10.70
2019-03-21T10:25:35.664Z,10.80
2019-03-21T10:28:05.386Z,11.00
2019-03-21T10:30:44.247Z,11.00
2019-03-21T10:33:15.467Z,10.90
2019-03-21T10:35:44.586Z,10.90
2019-03-21T10:38:14.319Z,10.70
2019-03-21T10:40:44.122Z,10.30
2019-03-21T10:43:13.343Z,10.20
2019-03-21T10:45:42.712Z,10.50
2019-03-21T10:48:11.979Z,10.70
2019-03-21T10:50:42.370Z,10.80
2019-03-21T10:53:12.303Z,10.80
2019-03-21T10:55:42.262Z,10.80
2019-03-21T10:58:11.922Z,10.80
2019-03-21T11:00:41.572Z,10.80
2019-03-21T11:03:11.439Z,10.80
2019-03-21T11:05:46.802Z,10.80
2019-03-21T11:08:15.843Z,10.60
2019-03-21T11:10:47.086Z,10.30
2019-03-21T11:13:16.500Z,10.30
2019-03-21T11:15:45.940Z,10.50
2019-03-21T11:18:15.380Z,10.70
2019-03-21T11:20:44.699Z,10.80
2019-03-21T11:23:13.879Z,10.90
2019-03-21T11:25:43.259Z,11.10
2019-03-21T11:28:14.360Z,11.20
2019-03-21T11:30:44.260Z,11.40
2019-03-21T11:33:13.541Z,11.40
2019-03-21T11:35:48.122Z,11.20
2019-03-21T11:38:18.123Z,10.80
2019-03-21T11:40:48.674Z,10.80
2019-03-21T11:43:18.740Z,10.80
2019-03-21T11:45:51.057Z,10.70
2019-03-21T11:48:22.985Z,10.30
2019-03-21T11:50:52.640Z,10.10
2019-03-21T11:53:22.440Z,10.00
2019-03-21T11:55:51.740Z,10.10
2019-03-21T11:58:20.823Z,10.20
2019-03-21T12:00:50.824Z,10.50
2019-03-21T12:03:19.854Z,10.50
2019-03-21T12:05:49.410Z,10.40
2019-03-21T12:08:18.829Z,10.50
2019-03-21T12:10:48.145Z,10.70
2019-03-21T12:13:17.444Z,10.90
2019-03-21T12:15:46.784Z,11.00
2019-03-21T12:18:16.024Z,11.30
2019-03-21T12:20:45.979Z,11.50
2019-03-21T12:23:15.625Z,11.60
2019-03-21T12:25:44.924Z,11.00
2019-03-21T12:28:14.688Z,10.40
2019-03-21T12:30:44.125Z,10.30
2019-03-21T12:33:13.846Z,10.30
2019-03-21T12:35:43.545Z,10.40
2019-03-21T12:38:13.091Z,10.60
2019-03-21T12:40:42.573Z,10.90
2019-03-21T12:43:12.693Z,11.00
2019-03-21T12:45:42.752Z,11.30
2019-03-21T12:48:12.291Z,11.50
2019-03-21T12:50:41.662Z,11.70
2019-03-21T12:53:11.236Z,11.60
2019-03-21T12:55:40.712Z,11.70
2019-03-21T12:58:10.129Z,11.70
2019-03-21T13:00:40.471Z,11.70
2019-03-21T13:03:10.022Z,11.80
2019-03-21T13:05:40.620Z,12.00
2019-03-21T13:08:11.702Z,12.00
2019-03-21T13:10:47.661Z,11.90
2019-03-21T13:13:16.861Z,11.80
2019-03-21T13:15:46.798Z,11.90
2019-03-21T13:18:19.280Z,11.80
2019-03-21T13:20:49.741Z,11.70
2019-03-21T13:23:19.947Z,11.70
2019-03-21T13:25:50.408Z,11.70
2019-03-21T13:28:21.568Z,11.60
2019-03-21T13:30:51.485Z,11.60
2019-03-21T13:33:22.526Z,11.60
2019-03-21T13:35:53.582Z,11.70
2019-03-21T13:38:23.542Z,11.80
2019-03-21T13:40:53.721Z,11.70
2019-03-21T13:43:24.137Z,11.70
2019-03-21T13:45:58.161Z,11.80
2019-03-21T13:48:28.285Z,12.00
2019-03-21T13:50:59.342Z,12.10
2019-03-21T13:53:29.961Z,12.00
2019-03-21T13:56:03.899Z,12.00
2019-03-21T13:58:35.679Z,12.00
2019-03-21T14:01:06.211Z,12.00
2019-03-21T14:03:37.922Z,12.10
2019-03-21T14:06:11.119Z,12.20
2019-03-21T14:08:44.259Z,12.30
2019-03-21T14:11:14.219Z,12.30
2019-03-21T14:13:45.670Z,12.30
2019-03-21T14:16:15.169Z,12.30
2019-03-21T14:18:45.586Z,12.10
2019-03-21T14:21:16.396Z,12.00
2019-03-21T14:23:45.807Z,12.10
2019-03-21T14:26:15.447Z,12.20
2019-03-21T14:28:45.049Z,12.40
2019-03-21T14:31:14.769Z,12.40
2019-03-21T14:33:44.744Z,12.20
2019-03-21T14:36:16.701Z,12.20
2019-03-21T14:38:45.804Z,12.10
2019-03-21T14:41:16.121Z,12.20
2019-03-21T14:43:45.341Z,12.30
2019-03-21T14:46:15.363Z,12.30
2019-03-21T14:48:45.843Z,12.20
2019-03-21T14:51:15.242Z,12.30
2019-03-21T14:53:44.924Z,12.40
2019-03-21T14:56:15.208Z,12.50
2019-03-21T14:58:45.123Z,12.40
2019-03-21T15:01:14.703Z,12.40
2019-03-21T15:03:44.060Z,12.50
2019-03-21T15:06:13.601Z,12.50
2019-03-21T15:08:42.881Z,12.60
2019-03-21T15:11:17.302Z,12.60
2019-03-21T15:13:43.679Z,12.70
2019-03-21T15:16:13.539Z,12.60
2019-03-21T15:18:43.099Z,12.60
2019-03-21T15:21:12.560Z,12.60
2019-03-21T15:23:42.540Z,12.60
2019-03-21T15:26:12.752Z,12.60
2019-03-21T15:28:42.204Z,12.60
2019-03-21T15:31:11.968Z,12.50
2019-03-21T15:33:41.687Z,12.50
2019-03-21T15:36:11.479Z,12.50
2019-03-21T15:38:40.804Z,12.50
2019-03-21T15:41:10.403Z,12.40
2019-03-21T15:43:42.321Z,12.40
2019-03-21T15:46:12.427Z,12.30
2019-03-21T15:48:43.186Z,12.30
2019-03-21T15:51:13.202Z,12.30
2019-03-21T15:53:53.229Z,12.30
2019-03-21T15:56:14.781Z,12.20
2019-03-21T15:58:44.140Z,12.10
2019-03-21T16:01:22.144Z,12.10
2019-03-21T16:03:52.527Z,12.00
2019-03-21T16:06:22.201Z,11.90
2019-03-21T16:08:51.763Z,11.80
2019-03-21T16:11:21.846Z,11.80
2019-03-21T16:13:51.604Z,11.80
2019-03-21T16:16:21.067Z,11.80
2019-03-21T16:18:50.530Z,11.80
2019-03-21T16:21:20.620Z,11.70
2019-03-21T16:23:50.577Z,11.70
2019-03-21T16:26:22.503Z,11.70
2019-03-21T16:28:53.439Z,11.60
2019-03-21T16:31:23.059Z,11.50
2019-03-21T16:33:52.283Z,11.50
2019-03-21T16:36:21.739Z,11.40
2019-03-21T16:38:51.719Z,11.30
2019-03-21T16:41:21.439Z,11.20
2019-03-21T16:43:50.839Z,11.10
2019-03-21T16:46:20.183Z,11.10
2019-03-21T16:48:49.840Z,11.00
2019-03-21T16:51:19.599Z,11.00
2019-03-21T16:53:49.685Z,10.90
2019-03-21T16:56:19.801Z,10.80
2019-03-21T16:58:49.441Z,10.70
2019-03-21T17:01:19.325Z,10.60
2019-03-21T17:03:49.547Z,10.60
2019-03-21T17:06:19.803Z,10.50
2019-03-21T17:08:49.880Z,10.40
2019-03-21T17:11:19.334Z,10.30
2019-03-21T17:13:59.323Z,10.30
2019-03-21T17:16:29.100Z,10.20
2019-03-21T17:18:58.878Z,10.10
2019-03-21T17:21:28.418Z,10.00
2019-03-21T17:23:58.414Z,9.90
2019-03-21T17:26:28.423Z,9.80
2019-03-21T17:28:58.507Z,9.70
2019-03-21T17:31:28.082Z,9.70
2019-03-21T17:33:57.902Z,9.50
2019-03-21T17:36:27.302Z,9.50
2019-03-21T17:38:57.123Z,9.40
2019-03-21T17:41:26.463Z,9.30
2019-03-21T17:43:56.490Z,9.30
2019-03-21T17:46:25.983Z,9.10
2019-03-21T17:48:55.840Z,9.10
2019-03-21T17:51:26.062Z,9.00
2019-03-21T17:53:55.560Z,8.90
2019-03-21T17:56:29.101Z,8.80
2019-03-21T17:59:00.362Z,8.70
2019-03-21T18:01:30.405Z,8.60
2019-03-21T18:04:00.326Z,8.60
2019-03-21T18:06:30.403Z,8.50
2019-03-21T18:09:00.545Z,8.50
2019-03-21T18:11:30.144Z,8.40
2019-03-21T18:14:00.064Z,8.40
2019-03-21T18:16:29.725Z,8.30
2019-03-21T18:18:59.511Z,8.30
2019-03-21T18:21:29.359Z,8.30
2019-03-21T18:23:59.019Z,8.30
2019-03-21T18:26:29.339Z,8.30
2019-03-21T18:28:59.419Z,8.30
2019-03-21T18:31:29.264Z,8.20
2019-03-21T18:33:59.243Z,8.20
2019-03-21T18:36:29.840Z,8.20
2019-03-21T18:39:00.113Z,8.10
2019-03-21T18:41:31.264Z,8.10
2019-03-21T18:44:02.317Z,8.10
2019-03-21T18:46:32.275Z,8.10
2019-03-21T18:49:02.602Z,8.10
2019-03-21T18:51:32.717Z,8.10
2019-03-21T18:54:02.917Z,8.10
2019-03-21T18:56:32.818Z,8.10
2019-03-21T18:59:03.201Z,8.00
2019-03-21T19:01:32.505Z,8.00
2019-03-21T19:04:02.045Z,7.90
2019-03-21T19:06:34.175Z,7.90
2019-03-21T19:09:04.525Z,7.80
2019-03-21T19:11:34.456Z,7.70
2019-03-21T19:14:05.878Z,7.60
2019-03-21T19:16:35.376Z,7.60
2019-03-21T19:19:05.461Z,7.50
2019-03-21T19:21:34.993Z,7.50
2019-03-21T19:24:04.162Z,7.50
2019-03-21T19:26:33.481Z,7.50
2019-03-21T19:29:02.869Z,7.40
2019-03-21T19:31:32.781Z,7.40
2019-03-21T19:34:03.534Z,7.40
2019-03-21T19:36:32.972Z,7.30
2019-03-21T19:39:02.518Z,7.30
2019-03-21T19:41:32.586Z,7.20
2019-03-21T19:44:01.839Z,7.20
2019-03-21T19:46:32.317Z,7.20
2019-03-21T19:49:03.158Z,7.10
2019-03-21T19:51:35.936Z,7.10
2019-03-21T19:54:05.765Z,7.10
2019-03-21T19:56:35.635Z,7.00
2019-03-21T19:59:05.255Z,7.00
2019-03-21T20:01:34.748Z,7.00
2019-03-21T20:04:06.037Z,7.00
2019-03-21T20:06:36.141Z,6.90
2019-03-21T20:09:07.835Z,6.90
2019-03-21T20:11:38.295Z,6.90
2019-03-21T20:14:07.558Z,6.80
2019-03-21T20:16:37.255Z,6.80
2019-03-21T20:19:06.975Z,6.90
2019-03-21T20:21:47.381Z,6.90
2019-03-21T20:24:09.615Z,6.90
2019-03-21T20:26:39.596Z,6.90
2019-03-21T20:29:09.478Z,6.90
2019-03-21T20:31:42.742Z,6.80
2019-03-21T20:34:12.994Z,6.80
2019-03-21T20:36:46.555Z,6.70
2019-03-21T20:39:16.099Z,6.70
2019-03-21T20:41:45.515Z,6.60
2019-03-21T20:44:17.415Z,6.60
2019-03-21T20:46:47.295Z,6.50
2019-03-21T20:49:17.156Z,6.50
2019-03-21T20:51:47.096Z,6.50
2019-03-21T20:54:18.995Z,6.50
2019-03-21T20:56:48.635Z,6.50
2019-03-21T20:59:20.075Z,6.50
2019-03-21T21:01:50.376Z,6.50
2019-03-21T21:04:20.118Z,6.30
2019-03-21T21:06:49.874Z,6.30
2019-03-21T21:09:20.177Z,6.20
2019-03-21T21:11:52.155Z,6.10
2019-03-21T21:14:22.357Z,6.00
2019-03-21T21:16:53.055Z,5.90
2019-03-21T21:19:22.739Z,5.80
2019-03-21T21:21:54.412Z,5.60
2019-03-21T21:24:24.055Z,5.50
2019-03-21T21:26:59.543Z,5.40
2019-03-21T21:29:28.975Z,5.20
2019-03-21T21:31:58.395Z,5.20
2019-03-21T21:34:28.495Z,5.20
2019-03-21T21:36:58.415Z,5.20
2019-03-21T21:39:27.954Z,5.20
2019-03-21T21:41:57.775Z,5.20
2019-03-21T21:44:27.119Z,5.20
2019-03-21T21:46:56.655Z,5.20
2019-03-21T21:49:27.015Z,5.20
2019-03-21T21:51:57.455Z,5.20
2019-03-21T21:54:27.195Z,5.20
2019-03-21T21:57:05.204Z,5.10
2019-03-21T21:59:35.236Z,5.20
2019-03-21T22:02:04.979Z,5.10
2019-03-21T22:04:35.208Z,5.10
2019-03-21T22:07:04.858Z,5.10
2019-03-21T22:09:34.438Z,5.10
2019-03-21T22:12:04.198Z,5.20
2019-03-21T22:14:34.087Z,5.10
2019-03-21T22:17:05.002Z,5.00
2019-03-21T22:19:34.378Z,5.00
2019-03-21T22:22:05.018Z,4.90
2019-03-21T22:24:34.578Z,4.90
2019-03-21T22:27:04.198Z,4.90
2019-03-21T22:29:37.418Z,4.80
2019-03-21T22:32:08.196Z,4.80
2019-03-21T22:34:38.056Z,4.70
2019-03-21T22:37:08.155Z,4.60
2019-03-21T22:39:38.636Z,4.50
2019-03-21T22:42:08.935Z,4.50
2019-03-21T22:44:39.019Z,4.50
2019-03-21T22:47:08.475Z,4.50
2019-03-21T22:49:38.538Z,4.40
2019-03-21T22:52:08.915Z,4.40
2019-03-21T22:54:39.000Z,4.30
2019-03-21T22:57:15.596Z,4.30
2019-03-21T22:59:45.596Z,4.20
2019-03-21T23:02:15.290Z,4.20
2019-03-21T23:04:45.150Z,4.10
2019-03-21T23:07:14.658Z,4.10
2019-03-21T23:09:44.792Z,4.10
2019-03-21T23:12:14.709Z,4.00
2019-03-21T23:14:44.323Z,4.00
2019-03-21T23:17:14.311Z,3.90
2019-03-21T23:19:43.612Z,3.90
2019-03-21T23:22:12.715Z,3.90
2019-03-21T23:24:42.576Z,3.80
2019-03-21T23:27:11.995Z,3.80
2019-03-21T23:29:41.775Z,3.70
2019-03-21T23:32:11.775Z,3.60
2019-03-21T23:34:41.577Z,3.60
2019-03-21T23:37:11.356Z,3.60
2019-03-21T23:39:40.875Z,3.60
2019-03-21T23:42:10.295Z,3.50
2019-03-21T23:44:41.576Z,3.50
2019-03-21T23:47:11.876Z,3.50
2019-03-21T23:49:42.095Z,3.50
2019-03-21T23:52:12.355Z,3.50
2019-03-21T23:54:42.154Z,3.40
2019-03-21T23:57:11.675Z,3.40
2019-03-21T23:59:43.695Z,3.40
